Decoded Metar for LRBM (BAIA MARE in ROMANIA) (IATA:BAY) | Meteo·Mobile Aviation Weather
aviador You're here:

LRBM Decoded Metar

BAIA MARE in ROMANIA
Report Time2019-02-19 13:00:00
UTC Time2019-02-19 13:32:40
Flight Rules vfr VFR
Wind130° at 05 kt
W.Decomp.*RWY 10: 4.5 kt HW 2.3 kt RCW
W.Rank130° ranks 14
Current wind is above 130° avg. (4.5)
Visibility9999 m
Phenomena:N/A
Clouds:N/A
Expected CloudBase > 4,400 ft AGL from Temp-Dew spread
CeilingNone
Temp12°C (ISA -2)
Dew Point01°C (47% RH)
AAT8.4°C
QNH1020 hPa
Density Alt249 ft
Elevation607 ft
Report Wrong Elevation
Raw Report
METAR LRBM 191300Z 13005KT 100V190 CAVOK 12/01 Q1020=

Extra information for LRBM:More info

Metar Taf Metar & Taf Last 4 Metars F.Rules Stats Wind Profile Meteogram Temp Stats Airport Information Weather charts Add Link Nearby VenuesMetar ALERT Operation Metar Decoded Social comments